Time;durP1;ratioP1;P1;durP2;ratioP2;P2;SDS_P1;SDS_P2;PMS_P1;PMS_P2;Temp;Humidity;BMP_temperature;BMP_pressure;BME280_temperature;BME280_humidity;BME280_pressure;Samples;Min_cycle;Max_cycle;Signal;HPM_P1;HPM_P2
2020/12/02 00:00:32;;;;;;;50.58;18.92;;;;;;;-4.08;64.93;94275.13;5059905;28;20391;-74
2020/12/02 00:03:27;;;;;;;47.20;17.80;;;;;;;-4.01;64.97;94275.06;5052905;28;20025;-74
2020/12/02 00:05:55;;;;;;;41.25;17.27;;;;;;;-4.06;65.75;94284.31;5067695;28;20028;-74
2020/12/02 00:08:57;;;;;;;46.47;18.67;;;;;;;-4.04;66.12;94281.50;5054858;28;20493;-74
2020/12/02 00:11:25;;;;;;;39.50;16.40;;;;;;;-4.06;65.90;94280.91;5024270;28;20428;-74
2020/12/02 00:13:51;;;;;;;45.10;17.38;;;;;;;-4.00;65.83;94274.88;5069443;28;20185;-74
2020/12/02 00:16:22;;;;;;;47.83;18.55;;;;;;;-3.95;66.20;94288.03;5072034;28;20034;-74
2020/12/02 00:18:50;;;;;;;38.67;17.63;;;;;;;-3.93;66.50;94282.63;5068851;28;20047;-74
2020/12/02 00:21:16;;;;;;;40.45;17.63;;;;;;;-3.92;66.10;94281.63;5059552;28;20061;-75
2020/12/02 00:23:41;;;;;;;46.38;17.95;;;;;;;-3.90;65.14;94277.78;5062241;28;20052;-74
2020/12/02 00:26:07;;;;;;;46.95;18.10;;;;;;;-3.90;65.39;94269.19;5071855;28;20413;-74
2020/12/02 00:28:34;;;;;;;37.85;16.95;;;;;;;-3.91;65.18;94273.59;5058051;28;20053;-74
2020/12/02 00:31:00;;;;;;;46.97;16.48;;;;;;;-3.91;65.34;94280.59;5062823;28;20464;-72
2020/12/02 00:33:26;;;;;;;43.95;18.45;;;;;;;-3.91;65.34;94273.59;5055275;28;20048;-73
2020/12/02 00:35:52;;;;;;;47.47;18.13;;;;;;;-3.90;65.18;94275.19;5068489;28;20063;-73
2020/12/02 00:38:20;;;;;;;40.80;16.70;;;;;;;-3.89;65.57;94274.19;5073045;28;20139;-74
2020/12/02 00:40:46;;;;;;;35.53;16.70;;;;;;;-3.89;65.26;94279.41;5072467;28;20108;-73
2020/12/02 00:43:14;;;;;;;32.90;14.45;;;;;;;-3.86;65.21;94273.75;5072425;28;20058;-73
2020/12/02 00:45:41;;;;;;;40.63;15.07;;;;;;;-3.87;65.18;94271.34;5071499;28;20020;-73
2020/12/02 00:48:12;;;;;;;38.13;16.63;;;;;;;-3.87;65.27;94274.78;5063885;28;20401;-74
2020/12/02 00:50:39;;;;;;;44.67;18.52;;;;;;;-3.89;65.88;94274.19;5052834;28;20037;-74
2020/12/02 00:53:17;;;;;;;51.40;18.85;;;;;;;-3.90;65.89;94269.97;5061003;28;20048;-74
2020/12/02 00:55:44;;;;;;;43.13;16.98;;;;;;;-3.94;65.88;94270.63;5055907;28;20094;-74
2020/12/02 00:58:15;;;;;;;38.60;15.82;;;;;;;-3.91;65.02;94265.78;5071887;28;20021;-74
2020/12/02 01:00:41;;;;;;;35.28;13.27;;;;;;;-4.01;64.90;94260.22;5054890;28;20412;-73
2020/12/02 01:03:19;;;;;;;36.40;14.02;;;;;;;-4.02;64.24;94271.66;5060192;28;20472;-74
2020/12/02 01:05:48;;;;;;;30.55;12.60;;;;;;;-4.03;63.93;94252.66;5058510;28;20050;-74
2020/12/02 01:08:36;;;;;;;37.50;16.10;;;;;;;-4.07;64.34;94267.09;5072573;28;20116;-73
2020/12/02 01:11:08;;;;;;;32.80;13.13;;;;;;;-4.07;64.58;94272.31;5066691;28;20072;-73
2020/12/02 01:13:35;;;;;;;39.80;14.73;;;;;;;-4.08;64.90;94275.91;5064229;28;20090;-73
2020/12/02 01:16:25;;;;;;;29.42;12.98;;;;;;;-4.07;64.79;94271.50;5052046;28;20060;-73
2020/12/02 01:18:50;;;;;;;32.38;13.95;;;;;;;-4.08;65.30;94262.91;5052082;28;20511;-73
2020/12/02 01:21:37;;;;;;;38.63;13.85;;;;;;;-4.04;64.71;94266.66;5052289;28;20028;-73
2020/12/02 01:24:13;;;;;;;42.22;15.80;;;;;;;-4.07;65.83;94268.91;5065751;28;20427;-73
2020/12/02 01:26:45;;;;;;;52.28;22.50;;;;;;;-4.13;67.12;94262.75;5051937;28;20087;-73
2020/12/02 01:29:16;;;;;;;64.35;27.27;;;;;;;-4.17;68.07;94271.16;5051643;28;20439;-73
2020/12/02 01:31:47;;;;;;;62.30;23.30;;;;;;;-4.20;67.25;94276.81;5053853;28;20472;-73
2020/12/02 01:34:14;;;;;;;81.25;32.33;;;;;;;-4.19;67.87;94274.00;5053320;28;20021;-73
2020/12/02 01:37:09;;;;;;;73.28;28.33;;;;;;;-4.22;67.89;94271.81;5052332;28;20049;-73
2020/12/02 01:39:47;;;;;;;69.47;25.67;;;;;;;-4.20;66.94;94274.22;5065077;28;20043;-73
2020/12/02 01:42:13;;;;;;;86.90;35.58;;;;;;;-4.20;67.79;94276.81;5068080;28;20026;-73
2020/12/02 01:44:40;;;;;;;110.97;42.22;;;;;;;-4.21;68.36;94285.63;5065164;28;20527;-73
2020/12/02 01:47:24;;;;;;;95.32;37.72;;;;;;;-4.20;68.00;94279.41;5060586;28;20380;-73
2020/12/02 01:50:00;;;;;;;79.55;32.83;;;;;;;-4.20;67.78;94282.81;5062592;28;20039;-73
2020/12/02 01:52:34;;;;;;;90.85;35.33;;;;;;;-4.21;67.79;94285.63;5059178;28;20496;-73
2020/12/02 01:55:02;;;;;;;82.07;33.10;;;;;;;-4.24;67.52;94272.00;5058931;28;20025;-72
2020/12/02 01:57:33;;;;;;;84.45;32.40;;;;;;;-4.23;68.35;94270.22;5068952;28;20032;-73
2020/12/02 02:00:12;;;;;;;84.25;31.95;;;;;;;-4.18;68.13;94280.00;5058519;28;20389;-71
2020/12/02 02:02:42;;;;;;;66.72;25.60;;;;;;;-4.18;67.71;94274.78;5050609;28;20502;-71
2020/12/02 02:05:17;;;;;;;56.42;21.60;;;;;;;-4.19;66.55;94281.00;5049175;28;20110;-71
2020/12/02 02:07:43;;;;;;;51.83;21.98;;;;;;;-4.15;66.70;94282.16;5049149;28;20032;-71
2020/12/02 02:10:19;;;;;;;57.20;22.92;;;;;;;-4.12;66.87;94273.97;5062923;28;20032;-71
2020/12/02 02:12:55;;;;;;;47.22;20.50;;;;;;;-4.12;65.66;94279.16;5054321;28;20024;-71
2020/12/02 02:15:35;;;;;;;51.40;20.83;;;;;;;-4.13;66.86;94274.94;5050597;28;20033;-71
2020/12/02 02:18:08;;;;;;;45.92;18.05;;;;;;;-4.13;67.14;94282.75;5050224;28;20563;-71
2020/12/02 02:20:36;;;;;;;43.33;19.13;;;;;;;-4.18;66.59;94286.00;5050341;28;20021;-71
2020/12/02 02:23:05;;;;;;;43.75;17.77;;;;;;;-4.14;67.82;94283.78;5059766;28;20020;-71
2020/12/02 02:25:31;;;;;;;41.03;17.55;;;;;;;-4.12;66.12;94284.38;5067080;28;20483;-71
2020/12/02 02:27:58;;;;;;;46.55;18.98;;;;;;;-4.10;65.12;94284.94;5049034;28;20029;-71
2020/12/02 02:30:23;;;;;;;43.50;18.52;;;;;;;-4.09;64.58;94286.53;5054978;28;20058;-71
2020/12/02 02:32:50;;;;;;;46.47;20.05;;;;;;;-4.16;64.41;94288.41;5068580;28;20020;-71
2020/12/02 02:35:15;;;;;;;48.08;19.38;;;;;;;-4.21;64.62;94285.63;5069628;28;20111;-71
2020/12/02 02:37:41;;;;;;;42.92;18.15;;;;;;;-4.24;65.01;94287.63;5069884;28;20483;-71
2020/12/02 02:40:09;;;;;;;38.88;17.45;;;;;;;-4.27;65.39;94282.88;5059130;28;20032;-71
2020/12/02 02:42:38;;;;;;;45.78;18.20;;;;;;;-4.26;65.85;94284.44;5049535;28;20060;-71
2020/12/02 02:45:29;;;;;;;40.75;17.35;;;;;;;-4.26;65.92;94284.44;5049460;28;20495;-71
2020/12/02 02:47:56;;;;;;;39.03;15.93;;;;;;;-4.26;65.53;94281.84;5050436;28;20094;-71
2020/12/02 02:50:24;;;;;;;37.35;15.70;;;;;;;-4.24;65.61;94287.63;5050614;28;20275;-71
2020/12/02 02:52:49;;;;;;;40.05;17.38;;;;;;;-4.27;65.76;94292.47;5050631;28;20389;-72
2020/12/02 02:55:19;;;;;;;40.55;16.00;;;;;;;-4.25;65.40;94286.06;5049216;28;20029;-71
2020/12/02 02:57:45;;;;;;;35.97;14.35;;;;;;;-4.27;65.05;94284.69;5049536;28;20036;-71
2020/12/02 03:00:21;;;;;;;36.95;15.52;;;;;;;-4.27;64.94;94279.47;5050152;28;20087;-72
2020/12/02 03:02:47;;;;;;;33.50;14.35;;;;;;;-4.28;64.64;94289.06;5054639;28;20438;-71
2020/12/02 03:05:14;;;;;;;32.67;14.45;;;;;;;-4.28;65.14;94289.06;5070061;28;20178;-72
2020/12/02 03:07:42;;;;;;;38.28;14.65;;;;;;;-4.32;65.53;94282.69;5069570;28;20025;-72
2020/12/02 03:10:09;;;;;;;30.70;14.27;;;;;;;-4.28;65.57;94285.66;5069669;28;20093;-71
2020/12/02 03:12:35;;;;;;;36.13;14.10;;;;;;;-4.25;65.84;94280.84;5058867;28;20029;-74
2020/12/02 03:15:01;;;;;;;38.63;15.55;;;;;;;-4.22;65.96;94278.84;5051133;28;20033;-74
2020/12/02 03:17:27;;;;;;;31.52;14.52;;;;;;;-4.22;66.03;94281.44;5049640;28;20519;-74
2020/12/02 03:20:02;;;;;;;31.63;13.25;;;;;;;-4.20;65.62;94284.63;5068954;28;20111;-74
2020/12/02 03:22:29;;;;;;;31.27;13.63;;;;;;;-4.18;65.28;94286.00;5062679;28;20499;-74
2020/12/02 03:24:57;;;;;;;32.25;14.27;;;;;;;-4.22;65.16;94286.66;5056672;28;20028;-74
2020/12/02 03:27:24;;;;;;;30.20;13.43;;;;;;;-4.24;65.77;94279.81;5061899;28;20028;-75
2020/12/02 03:29:50;;;;;;;42.80;15.93;;;;;;;-4.20;65.48;94282.81;5060342;28;20411;-74
2020/12/02 03:32:15;;;;;;;40.15;15.82;;;;;;;-4.19;65.37;94286.19;5056241;28;20506;-74
2020/12/02 03:34:41;;;;;;;42.00;17.17;;;;;;;-4.22;65.56;94284.81;5065633;28;20028;-74
2020/12/02 03:37:06;;;;;;;33.40;13.30;;;;;;;-4.24;64.51;94277.22;5062251;28;20025;-74
2020/12/02 03:39:32;;;;;;;34.60;14.35;;;;;;;-4.22;65.05;94286.66;5067262;28;20048;-74
2020/12/02 03:41:57;;;;;;;39.47;14.77;;;;;;;-4.21;65.39;94290.81;5053327;28;20024;-74
2020/12/02 03:44:22;;;;;;;31.45;13.27;;;;;;;-4.21;65.59;94277.81;5060338;28;20454;-74
2020/12/02 03:46:48;;;;;;;25.35;11.75;;;;;;;-4.21;64.90;94280.41;5053389;28;20028;-74
2020/12/02 03:49:14;;;;;;;26.08;11.70;;;;;;;-4.23;65.01;94283.25;5052559;28;20403;-74
2020/12/02 03:51:39;;;;;;;31.45;12.40;;;;;;;-4.26;65.26;94274.03;5059791;28;20504;-74
2020/12/02 03:54:05;;;;;;;33.10;14.15;;;;;;;-4.30;65.25;94288.47;5063904;28;20017;-74
2020/12/02 03:56:31;;;;;;;23.40;11.57;;;;;;;-4.31;65.48;94281.69;5058578;28;20451;-75
2020/12/02 03:58:56;;;;;;;29.80;14.15;;;;;;;-4.29;66.11;94284.88;5053112;28;20036;-73
2020/12/02 04:01:22;;;;;;;67.82;28.50;;;;;;;-4.23;65.43;94293.66;5059653;28;20028;-73
2020/12/02 04:03:48;;;;;;;44.42;18.98;;;;;;;-4.24;65.00;94290.25;5061174;28;20020;-73
2020/12/02 04:06:15;;;;;;;40.47;18.20;;;;;;;-4.21;65.29;94280.41;5067608;28;20032;-73
2020/12/02 04:08:41;;;;;;;35.63;15.20;;;;;;;-4.22;65.12;94281.44;5072128;28;20020;-73
2020/12/02 04:11:09;;;;;;;34.75;13.65;;;;;;;-4.24;65.01;94274.63;5072812;28;20024;-73
2020/12/02 04:13:35;;;;;;;43.22;16.33;;;;;;;-4.26;65.20;94279.25;5063857;28;20526;-73
2020/12/02 04:16:01;;;;;;;38.95;15.98;;;;;;;-4.30;65.71;94285.09;5053039;28;20473;-73
2020/12/02 04:18:28;;;;;;;43.05;14.63;;;;;;;-4.29;65.18;94284.88;5051443;28;20028;-73
2020/12/02 04:20:54;;;;;;;41.40;16.83;;;;;;;-4.34;64.70;94287.31;5052596;28;20101;-73
2020/12/02 04:23:19;;;;;;;43.53;16.33;;;;;;;-4.34;64.84;94282.09;5061743;28;20479;-74
2020/12/02 04:25:44;;;;;;;39.22;16.80;;;;;;;-4.34;65.47;94287.31;5068063;28;20063;-74
2020/12/02 04:28:10;;;;;;;41.67;17.35;;;;;;;-4.34;66.16;94289.13;5064391;28;20058;-74
2020/12/02 04:30:35;;;;;;;47.90;18.85;;;;;;;-4.33;66.31;94285.53;5072738;28;20067;-74
2020/12/02 04:33:01;;;;;;;39.35;15.95;;;;;;;-4.32;66.36;94287.88;5060966;28;20028;-74
2020/12/02 04:35:26;;;;;;;42.15;17.17;;;;;;;-4.37;66.96;94292.94;5064806;28;20056;-74
2020/12/02 04:37:52;;;;;;;42.75;17.70;;;;;;;-4.42;66.91;94284.94;5071349;28;20025;-74
2020/12/02 04:40:30;;;;;;;40.42;17.00;;;;;;;-4.45;65.96;94285.38;5059456;28;20104;-73
2020/12/02 04:43:24;;;;;;;38.75;15.00;;;;;;;-4.45;65.69;94280.19;5063357;28;20181;-74
2020/12/02 04:45:51;;;;;;;44.80;17.77;;;;;;;-4.44;65.94;94286.97;5067252;28;20407;-74
2020/12/02 04:48:25;;;;;;;44.47;16.95;;;;;;;-4.42;65.04;94282.34;5065045;28;20017;-74
2020/12/02 04:50:51;;;;;;;36.40;15.85;;;;;;;-4.40;65.01;94297.75;5065553;28;20689;-74
2020/12/02 04:53:22;;;;;;;32.05;14.30;;;;;;;-4.40;65.88;94302.97;5060161;28;20036;-74
2020/12/02 04:55:53;;;;;;;35.58;14.00;;;;;;;-4.39;67.02;94294.97;5051382;28;20029;-74
2020/12/02 04:58:32;;;;;;;40.22;15.25;;;;;;;-4.41;67.00;94290.97;5069585;28;20092;-74
2020/12/02 05:01:16;;;;;;;36.13;16.15;;;;;;;-4.36;65.96;94294.53;5053131;28;20017;-74
2020/12/02 05:03:56;;;;;;;37.92;15.63;;;;;;;-4.33;66.56;94299.31;5055770;28;20104;-74
2020/12/02 05:06:23;;;;;;;34.67;14.48;;;;;;;-4.40;66.89;94298.56;5052933;28;20033;-74
2020/12/02 05:08:49;;;;;;;36.45;14.77;;;;;;;-4.46;66.74;94291.56;5051898;28;20051;-74
2020/12/02 05:11:14;;;;;;;35.72;14.95;;;;;;;-4.38;65.65;94296.53;5066981;28;20029;-74
2020/12/02 05:13:40;;;;;;;30.45;14.30;;;;;;;-4.39;65.78;94294.16;5066205;28;20063;-74
2020/12/02 05:16:12;;;;;;;35.63;15.48;;;;;;;-4.40;66.02;94301.16;5071755;28;20498;-74
2020/12/02 05:18:37;;;;;;;36.50;14.90;;;;;;;-4.41;65.65;94301.38;5065858;28;20030;-74
2020/12/02 05:21:20;;;;;;;37.63;16.95;;;;;;;-4.45;65.48;94298.41;5060780;28;20095;-74
2020/12/02 05:24:01;;;;;;;41.83;17.17;;;;;;;-4.49;65.82;94305.03;5071854;28;20141;-74
2020/12/02 05:26:30;;;;;;;38.25;16.58;;;;;;;-4.51;65.67;94307.03;5060932;28;20028;-73
2020/12/02 05:28:55;;;;;;;41.28;17.50;;;;;;;-4.53;65.82;94303.84;5071847;28;20028;-73
2020/12/02 05:31:27;;;;;;;54.08;20.98;;;;;;;-4.52;64.99;94305.41;5071565;28;20435;-73
2020/12/02 05:34:06;;;;;;;49.92;20.83;;;;;;;-4.55;65.56;94311.06;5068627;28;20047;-73
2020/12/02 05:36:32;;;;;;;39.10;17.08;;;;;;;-4.52;66.99;94310.63;5071682;28;20439;-73
2020/12/02 05:40:03;;;;;;;39.72;17.90;;;;;;;-4.49;66.38;94325.84;5055625;28;20029;-73
2020/12/02 05:42:46;;;;;;;38.42;16.00;;;;;;;-4.44;66.60;94326.00;5021488;28;20121;-73
2020/12/02 05:45:17;;;;;;;36.97;14.90;;;;;;;-4.41;66.68;94333.41;5054439;28;20037;-74
2020/12/02 05:47:48;;;;;;;40.67;16.55;;;;;;;-4.40;67.24;94334.97;5051531;28;20028;-74
2020/12/02 05:50:15;;;;;;;37.00;16.67;;;;;;;-4.42;67.82;94342.19;5057075;28;20032;-74
2020/12/02 05:52:44;;;;;;;38.10;16.60;;;;;;;-4.42;68.01;94339.59;5065069;28;20071;-74
2020/12/02 05:55:09;;;;;;;40.70;16.25;;;;;;;-4.43;67.93;94341.41;5060624;28;20473;-74
2020/12/02 05:57:40;;;;;;;40.13;15.93;;;;;;;-4.48;68.14;94340.44;5055739;28;20047;-74
2020/12/02 06:00:06;;;;;;;42.42;18.17;;;;;;;-4.54;68.41;94360.28;5058371;28;20036;-74
2020/12/02 06:02:32;;;;;;;41.25;19.75;;;;;;;-4.54;67.50;94364.66;5053721;28;20379;-75
2020/12/02 06:04:58;;;;;;;44.28;19.85;;;;;;;-4.55;68.00;94363.09;5062926;28;20028;-74
2020/12/02 06:07:23;;;;;;;41.65;18.45;;;;;;;-4.49;68.11;94357.84;5069465;28;20028;-74
2020/12/02 06:09:52;;;;;;;39.97;18.02;;;;;;;-4.44;68.37;94359.81;5067058;28;20024;-74
2020/12/02 06:12:23;;;;;;;37.70;16.55;;;;;;;-4.40;68.36;94363.59;5070606;28;20038;-75
2020/12/02 06:14:50;;;;;;;37.72;16.52;;;;;;;-4.37;68.37;94359.81;5068001;28;20028;-75
2020/12/02 06:17:29;;;;;;;41.38;17.05;;;;;;;-4.30;67.82;94366.56;5067870;28;20399;-74
2020/12/02 06:19:55;;;;;;;41.20;16.65;;;;;;;-4.30;67.76;94361.34;5057503;28;20059;-75
2020/12/02 06:22:43;;;;;;;32.90;15.60;;;;;;;-4.25;68.07;94364.13;5070426;28;20024;-75
2020/12/02 06:25:47;;;;;;;35.00;15.32;;;;;;;-4.20;67.93;94367.91;5055446;28;20029;-75
2020/12/02 06:28:32;;;;;;;36.97;16.73;;;;;;;-4.17;68.18;94368.31;5046726;28;20429;-74
2020/12/02 06:31:00;;;;;;;36.70;16.45;;;;;;;-4.07;68.07;94371.25;5038627;28;20043;-74
2020/12/02 06:33:32;;;;;;;44.78;17.75;;;;;;;-3.99;68.04;94369.41;5051838;28;20464;-74
2020/12/02 06:36:19;;;;;;;44.60;18.40;;;;;;;-3.90;67.86;94376.75;5062348;28;20087;-74
2020/12/02 06:39:07;;;;;;;34.10;15.70;;;;;;;-3.83;66.64;94371.50;5052888;28;20099;-74
2020/12/02 06:41:41;;;;;;;49.33;19.60;;;;;;;-3.76;65.97;94374.06;5062765;28;20062;-74
2020/12/02 06:44:09;;;;;;;49.83;22.40;;;;;;;-3.70;66.09;94376.63;5069928;28;20063;-73
2020/12/02 06:46:47;;;;;;;58.45;25.63;;;;;;;-3.73;66.76;94382.25;5050469;28;20052;-74
2020/12/02 06:49:12;;;;;;;80.20;33.10;;;;;;;-3.71;66.55;94392.47;5046716;28;20047;-74
2020/12/02 06:51:47;;;;;;;58.00;25.55;;;;;;;-3.66;66.18;94392.63;5059632;28;20053;-74
2020/12/02 06:54:14;;;;;;;59.75;24.75;;;;;;;-3.66;66.24;94383.00;5058800;28;20078;-74
2020/12/02 06:56:40;;;;;;;75.50;29.15;;;;;;;-3.64;65.98;94388.00;5050140;28;20028;-73
2020/12/02 06:59:06;;;;;;;86.38;34.42;;;;;;;-3.64;66.42;94385.41;5058193;28;20017;-73
2020/12/02 07:01:34;;;;;;;67.35;28.83;;;;;;;-3.60;66.28;94385.75;5056589;28;20510;-73
2020/12/02 07:04:06;;;;;;;67.30;28.33;;;;;;;-3.59;66.66;94382.16;5063457;28;20020;-74
2020/12/02 07:06:32;;;;;;;62.08;28.42;;;;;;;-3.51;66.17;94379.28;5066290;28;20031;-72
2020/12/02 07:09:13;;;;;;;59.75;26.20;;;;;;;-3.44;66.27;94380.84;5050681;28;20025;-76
2020/12/02 07:11:48;;;;;;;63.60;29.60;;;;;;;-3.36;66.21;94381.56;5059273;28;20485;-75
2020/12/02 07:14:19;;;;;;;79.68;32.83;;;;;;;-3.34;66.25;94376.94;5055194;28;20297;-76
2020/12/02 07:16:45;;;;;;;90.00;39.40;;;;;;;-3.26;66.37;94376.66;5057505;28;20033;-76
2020/12/02 07:19:14;;;;;;;105.28;48.78;;;;;;;-3.24;66.26;94375.47;5056936;28;20271;-73
2020/12/02 07:21:49;;;;;;;99.25;46.35;;;;;;;-3.18;66.40;94373.78;5057786;28;20020;-73
2020/12/02 07:24:25;;;;;;;86.45;40.20;;;;;;;-3.06;65.68;94369.44;5068600;28;20135;-75
2020/12/02 07:26:51;;;;;;;106.20;44.33;;;;;;;-3.00;65.98;94373.00;5063560;28;20036;-74
2020/12/02 07:29:23;;;;;;;111.65;50.20;;;;;;;-2.97;66.11;94377.00;5059873;28;20036;-75
2020/12/02 07:32:19;;;;;;;120.20;47.95;;;;;;;-2.93;66.30;94378.16;5058535;28;20115;-73
2020/12/02 07:34:46;;;;;;;113.55;48.33;;;;;;;-2.85;66.36;94378.69;5049487;28;20048;-75
2020/12/02 07:37:20;;;;;;;109.20;44.38;;;;;;;-2.83;65.88;94384.50;5053211;28;20112;-75
2020/12/02 07:39:48;;;;;;;102.32;46.35;;;;;;;-2.86;66.32;94381.50;5069164;28;20380;-75
2020/12/02 07:42:38;;;;;;;105.97;44.95;;;;;;;-2.74;66.24;94377.16;5062279;28;20029;-75
2020/12/02 07:45:03;;;;;;;96.82;43.00;;;;;;;-2.67;65.44;94380.47;5059451;28;20032;-75
2020/12/02 07:47:30;;;;;;;101.80;46.20;;;;;;;-2.62;65.13;94379.84;5061927;28;20042;-72
2020/12/02 07:50:20;;;;;;;172.55;66.25;;;;;;;-2.62;65.25;94385.06;5066285;28;20567;-72
2020/12/02 07:52:48;;;;;;;180.98;76.50;;;;;;;-2.61;65.10;94384.03;5064693;28;20049;-72
2020/12/02 07:55:20;;;;;;;148.52;59.95;;;;;;;-2.54;65.62;94384.00;5059474;28;20404;-72
2020/12/02 07:57:46;;;;;;;;;;;;;;;-2.54;65.64;94386.59;5068398;28;20052;-72
2020/12/02 08:00:34;;;;;;;100.45;42.13;;;;;;;-2.48;65.35;94385.72;5060739;28;20302;-73
2020/12/02 08:03:00;;;;;;;102.38;45.53;;;;;;;-2.51;66.25;94386.16;5048261;28;20404;-73
2020/12/02 08:05:33;;;;;;;103.95;45.30;;;;;;;-2.43;65.00;94380.63;5056162;28;20058;-74
2020/12/02 08:07:59;;;;;;;109.22;49.70;;;;;;;-2.37;64.62;94384.97;5066221;28;20051;-75
2020/12/02 08:10:28;;;;;;;98.75;45.10;;;;;;;-2.38;65.01;94393.84;5060420;28;20025;-75
2020/12/02 08:12:53;;;;;;;102.85;47.05;;;;;;;-2.31;65.52;94399.75;5068293;28;20028;-76
2020/12/02 08:15:19;;;;;;;110.65;49.58;;;;;;;-2.28;65.46;94394.13;5062136;28;20107;-76
2020/12/02 08:18:01;;;;;;;123.25;52.03;;;;;;;-2.25;64.79;94391.06;5059235;28;20102;-75
2020/12/02 08:20:33;;;;;;;107.18;47.75;;;;;;;-2.17;64.48;94389.16;5063117;28;20087;-75
2020/12/02 08:23:05;;;;;;;;;;;;;;;-2.21;64.72;94383.56;5065765;28;20466;-76
2020/12/02 08:25:38;;;;;;;104.10;44.83;;;;;;;-2.20;65.03;94385.16;5065197;28;20360;-76
2020/12/02 08:28:14;;;;;;;98.63;47.28;;;;;;;-2.10;64.86;94392.47;5065196;28;20029;-75
2020/12/02 08:30:39;;;;;;;126.88;51.25;;;;;;;-2.02;64.57;94390.34;5055110;28;20029;-74
2020/12/02 08:33:14;;;;;;;118.13;51.20;;;;;;;-1.96;64.52;94386.06;5068443;28;20457;-73
2020/12/02 08:35:41;;;;;;;107.63;50.00;;;;;;;-1.89;64.43;94384.16;5068218;28;20039;-73
2020/12/02 08:38:14;;;;;;;142.27;57.88;;;;;;;-1.80;64.48;94389.06;5059731;28;20031;-73
2020/12/02 08:40:43;;;;;;;144.38;54.42;;;;;;;-1.78;64.61;94381.81;5051033;28;20035;-74
2020/12/02 08:43:18;;;;;;;147.48;56.45;;;;;;;-1.66;65.16;94386.03;5055078;28;20103;-75
2020/12/02 08:46:11;;;;;;;192.88;66.75;;;;;;;-1.57;65.23;94378.66;5060324;28;20098;-75
2020/12/02 08:48:39;;;;;;;155.88;61.50;;;;;;;-1.49;64.54;94380.94;5049630;28;20048;-75
2020/12/02 08:51:14;;;;;;;137.95;58.90;;;;;;;-1.41;64.47;94379.81;5069693;28;20040;-73
2020/12/02 08:53:40;;;;;;;122.15;56.53;;;;;;;-1.30;64.65;94378.28;5070422;28;20056;-73
2020/12/02 08:56:40;;;;;;;133.07;56.25;;;;;;;-1.21;64.70;94375.06;5059585;28;20553;-73
2020/12/02 08:59:09;;;;;;;115.18;52.85;;;;;;;-1.07;64.06;94380.88;5050169;28;20530;-72
2020/12/02 09:01:35;;;;;;;119.80;53.38;;;;;;;-1.02;63.49;94375.78;5063183;28;20356;-73
2020/12/02 09:04:01;;;;;;;119.70;52.28;;;;;;;-0.97;62.52;94375.09;5058069;28;20090;-72
2020/12/02 09:06:27;;;;;;;104.78;49.55;;;;;;;-0.95;62.30;94375.66;5070339;28;20036;-72
2020/12/02 09:08:53;;;;;;;109.93;53.78;;;;;;;-0.99;63.29;94373.72;5069028;28;20031;-72
2020/12/02 09:11:26;;;;;;;125.53;53.53;;;;;;;-0.95;63.43;94374.88;5062388;28;20472;-71
2020/12/02 09:13:52;;;;;;;108.95;51.25;;;;;;;-0.87;63.60;94369.28;5058144;28;20526;-71
2020/12/02 09:16:29;;;;;;;106.97;48.33;;;;;;;-0.76;63.13;94371.06;5055670;28;20033;-72
2020/12/02 09:18:55;;;;;;;118.53;52.90;;;;;;;-0.68;63.08;94365.50;5057025;28;20035;-73
2020/12/02 09:21:22;;;;;;;122.10;55.75;;;;;;;-0.58;63.19;94358.88;5060209;28;20033;-74
2020/12/02 09:23:47;;;;;;;116.57;50.80;;;;;;;-0.57;62.41;94355.22;5057244;28;20021;-73
2020/12/02 09:26:18;;;;;;;110.03;49.08;;;;;;;-0.50;62.66;94350.66;5062702;28;20376;-74
2020/12/02 09:28:44;;;;;;;105.22;46.65;;;;;;;-0.43;62.82;94354.75;5057806;28;20021;-74
2020/12/02 09:31:10;;;;;;;93.75;46.88;;;;;;;-0.36;61.95;94359.84;5062662;28;20404;-75
2020/12/02 09:33:35;;;;;;;96.55;44.65;;;;;;;-0.34;62.09;94349.94;5063163;28;20475;-76
2020/12/02 09:36:01;;;;;;;100.20;46.03;;;;;;;-0.27;62.16;94353.19;5064139;28;20089;-75
2020/12/02 09:38:27;;;;;;;78.95;38.78;;;;;;;-0.18;63.22;94342.34;5062588;28;20484;-65
2020/12/02 09:40:53;;;;;;;108.43;44.40;;;;;;;-0.09;62.14;94340.97;5062659;28;20115;-66
2020/12/02 09:43:51;;;;;;;92.38;45.97;;;;;;;-0.03;61.87;94342.63;5059743;28;20021;-65
2020/12/02 09:46:20;;;;;;;72.65;37.20;;;;;;;-0.04;63.43;94330.56;5060071;28;20034;-65
2020/12/02 09:48:47;;;;;;;70.78;32.88;;;;;;;0.13;62.66;94335.84;5059209;28;20059;-65
2020/12/02 09:51:28;;;;;;;66.32;32.33;;;;;;;0.17;62.08;94329.88;5061361;28;20068;-65
2020/12/02 09:53:55;;;;;;;63.45;31.80;;;;;;;0.29;63.14;94327.22;5056754;28;20544;-65
2020/12/02 09:56:21;;;;;;;77.50;32.67;;;;;;;0.44;62.90;94325.88;5061650;28;20051;-65
2020/12/02 09:58:46;;;;;;;66.03;31.67;;;;;;;0.49;62.18;94323.31;5055165;28;20071;-66
2020/12/02 10:01:22;;;;;;;67.18;31.65;;;;;;;0.65;61.94;94319.09;5060718;28;20387;-66
2020/12/02 10:04:18;;;;;;;67.97;30.52;;;;;;;0.85;62.30;94318.59;5060900;28;20514;-70
2020/12/02 10:06:52;;;;;;;64.07;29.50;;;;;;;0.95;61.86;94309.03;5056719;28;20111;-69
2020/12/02 10:09:42;;;;;;;70.00;31.80;;;;;;;1.08;61.73;94309.72;5058895;28;20409;-70
2020/12/02 10:12:19;;;;;;;74.15;32.72;;;;;;;1.28;59.43;94301.31;5067113;28;20029;-69
2020/12/02 10:15:01;;;;;;;73.50;32.60;;;;;;;1.42;59.85;94296.50;5056190;28;20143;-69
2020/12/02 10:17:40;;;;;;;67.97;31.63;;;;;;;1.55;59.03;94299.56;5058900;28;20044;-69
2020/12/02 10:20:09;;;;;;;65.47;31.85;;;;;;;1.69;57.89;94283.41;5058478;28;20107;-70
2020/12/02 10:22:43;;;;;;;58.08;28.60;;;;;;;1.77;58.19;94288.22;5050890;28;20036;-70
2020/12/02 10:25:24;;;;;;;57.67;26.88;;;;;;;1.89;57.86;94282.81;5049391;28;20530;-69
2020/12/02 10:28:16;;;;;;;53.83;24.83;;;;;;;1.80;57.48;94271.97;5049332;28;20407;-69
2020/12/02 10:31:25;;;;;;;53.27;26.27;;;;;;;1.88;57.73;94278.63;5049645;28;20507;-70
2020/12/02 10:34:21;;;;;;;51.67;23.67;;;;;;;1.94;58.62;94259.22;5048598;28;20412;-70
2020/12/02 10:37:04;;;;;;;49.92;23.83;;;;;;;2.06;57.59;94264.34;5050770;28;20024;-70
2020/12/02 10:39:32;;;;;;;48.08;23.92;;;;;;;2.17;56.39;94258.88;5049221;28;20439;-70
2020/12/02 10:42:29;;;;;;;55.67;26.45;;;;;;;2.22;57.11;94260.78;5049311;28;20039;-69
2020/12/02 10:45:16;;;;;;;47.97;23.27;;;;;;;2.35;56.79;94262.19;5049111;28;20025;-69
2020/12/02 10:47:52;;;;;;;44.22;22.02;;;;;;;2.44;57.23;94255.41;5049161;28;20028;-70
2020/12/02 10:50:22;;;;;;;42.88;19.13;;;;;;;2.56;57.83;94236.81;5049612;28;20060;-70
2020/12/02 10:52:50;;;;;;;46.88;19.90;;;;;;;2.68;57.39;94239.28;5067034;28;20591;-70
2020/12/02 10:55:20;;;;;;;40.17;20.00;;;;;;;2.83;57.75;94242.00;5050452;28;20086;-71
2020/12/02 10:58:28;;;;;;;39.35;19.70;;;;;;;2.96;56.23;94238.91;5048921;28;20464;-71
2020/12/02 11:00:57;;;;;;;39.88;17.73;;;;;;;3.08;54.92;94237.91;5037356;28;20029;-73
2020/12/02 11:03:22;;;;;;;37.05;18.42;;;;;;;3.18;55.12;94241.38;5048425;28;20032;-72
2020/12/02 11:06:22;;;;;;;31.42;17.55;;;;;;;3.27;55.67;94248.78;5048769;28;20392;-72
2020/12/02 11:09:09;;;;;;;39.45;18.60;;;;;;;3.33;53.89;94237.22;5044655;28;20087;-71
2020/12/02 11:11:53;;;;;;;39.33;18.63;;;;;;;3.31;54.58;94234.06;5046685;28;20037;-72
2020/12/02 11:14:35;;;;;;;33.97;16.88;;;;;;;3.40;54.71;94237.78;5048093;28;20029;-72
2020/12/02 11:17:12;;;;;;;33.83;17.80;;;;;;;3.46;53.87;94234.13;5049363;28;20029;-71
2020/12/02 11:20:07;;;;;;;47.22;21.02;;;;;;;3.60;54.46;94231.75;5060589;28;20032;-71
2020/12/02 11:22:56;;;;;;;44.97;19.52;;;;;;;3.67;52.75;94229.69;5069897;28;20050;-71
2020/12/02 11:25:21;;;;;;;39.33;19.45;;;;;;;3.78;52.87;94233.13;5068397;28;20478;-72
2020/12/02 11:27:47;;;;;;;40.92;19.42;;;;;;;3.86;53.41;94237.88;5068884;28;20074;-72
2020/12/02 11:30:24;;;;;;;37.83;18.38;;;;;;;3.95;53.38;94240.81;5069979;28;20033;-72
2020/12/02 11:32:58;;;;;;;37.92;19.67;;;;;;;4.01;53.57;94230.00;5069979;28;20029;-72
2020/12/02 11:35:37;;;;;;;46.13;20.90;;;;;;;4.07;52.68;94225.53;5053619;28;20029;-72
2020/12/02 11:38:28;;;;;;;37.25;20.17;;;;;;;4.15;52.08;94225.00;5048635;28;20093;-71
2020/12/02 11:41:09;;;;;;;43.37;19.80;;;;;;;4.14;52.01;94217.34;5047688;28;20120;-72